Weather observations for the past three days for
San Diego, North Island, Naval Air Station
| Date | Time (pdt) | Wind (mph) | Vis. (mi.) | Weather | Sky Cond. | Temperature (ºF) | Relative Humidity | Wind Chill (°F) | Heat Index (°F) | Pressure | Precipitation (in) | ||||||
|---|---|---|---|---|---|---|---|---|---|---|---|---|---|---|---|---|---|
| Air | Dwpt | 6 hour | altimeter (in) | sea level (mb) | 1 hr | 3 hr | 6 hr | ||||||||||
| Max. | Min. | ||||||||||||||||
| 06 | 04:52 | E 5 | 10.00 | Mostly Cloudy | SCT026 BKN038 BKN250 | 57 | 52 | 61 | 55.9 | 83% | 30.04 | 1017.3 | |||||
| 06 | 03:52 | E 3 | 10.00 | Mostly Cloudy | SCT026 BKN036 BKN250 | 57.9 | 51.1 | 78% | 30.04 | 1017.3 | |||||||
| 06 | 02:52 | E 3 | 10.00 | Mostly Cloudy | SCT028 BKN043 BKN250 | 57.9 | 52 | 81% | 30.03 | 1017.0 | |||||||
| 06 | 01:52 | Calm | 10.00 | Mostly Cloudy | SCT028 BKN041 BKN250 | 59 | 52 | 78% | 30.05 | 1017.4 | |||||||
| 06 | 00:52 | Calm | 8.00 | Partly Cloudy | FEW032 FEW049 SCT250 | 55.9 | 51.1 | 84% | 30.06 | 1017.9 | |||||||
| 05 | 23:52 | Calm | 10.00 | Partly Cloudy | FEW032 FEW049 SCT250 | 59 | 50 | 72% | 30.06 | 1017.7 | |||||||
| 05 | 22:52 | NW 5 | 10.00 | Partly Cloudy | FEW032 SCT049 SCT250 | 61 | 48.9 | 66 | 60.1 | 65% | 30.05 | 1017.5 | |||||
| 05 | 21:52 | NW 7 | 10.00 | Mostly Cloudy | FEW032 SCT049 BKN250 | 61 | 48.9 | 65% | 30.04 | 1017.3 | |||||||
| 05 | 20:52 | NW 8 | 10.00 | Mostly Cloudy | SCT032 BKN041 BKN250 | 62.1 | 48.9 | 62% | 30.02 | 1016.7 | |||||||
| 05 | 19:52 | NW 9 | 10.00 | Mostly Cloudy | SCT029 BKN065 BKN250 | 62.1 | 48.9 | 62% | 30 | 1015.8 | |||||||
| 05 | 18:52 | W 10 | 10.00 | Mostly Cloudy | SCT030 BKN070 BKN240 | 63 | 50 | 63% | 29.98 | 1015.2 | |||||||
| 05 | 17:52 | NW 12 | 10.00 | Mostly Cloudy | SCT032 BKN070 BKN230 | 64 | 48 | 56% | 29.98 | 1015.0 | |||||||
| 05 | 16:52 | W 10 | 10.00 | Partly Cloudy | FEW030 SCT065 SCT240 | 64.9 | 48 | 66.9 | 64 | 54% | 29.97 | 1014.9 | |||||
| 05 | 15:52 | SW 8 | 10.00 | Partly Cloudy | FEW032 SCT060 SCT250 | 66 | 48.9 | 54% | 29.98 | 1015.1 | |||||||
| 05 | 14:52 | W 9 | 10.00 | Partly Cloudy | SCT034 SCT065 | 66 | 48.9 | 54% | 29.99 | 1015.4 | |||||||
| 05 | 13:52 | W 13 | 10.00 | Partly Cloudy | SCT034 SCT065 | 66 | 48.9 | 54% | 30 | 1015.9 | |||||||
| 05 | 12:52 | NW 13 G 22 | 10.00 | Partly Cloudy | SCT034 SCT065 | 66 | 50 | 56% | 30.01 | 1016.1 | |||||||
| 05 | 11:52 | NW 12 | 10.00 | Mostly Cloudy | SCT034 SCT065 BKN250 | 64.9 | 50 | 59% | 30.01 | 1016.2 | |||||||
| 05 | 10:52 | NW 14 | 10.00 | Mostly Cloudy | FEW031 SCT048 BKN075 BKN250 | 64.9 | 51.1 | 64.9 | 55.9 | 61% | 30 | 1015.9 | 0.07 | ||||
| 05 | 09:52 | W 12 | 10.00 | Mostly Cloudy | FEW025 SCT033 BKN060 | 63 | 51.1 | 65% | 29.99 | 1015.5 | |||||||
| 05 | 08:52 | W 7 | 10.00 | Mostly Cloudy | SCT020 BKN045 BKN065 BKN200 | 61 | 53.1 | 75% | 29.97 | 1014.9 | |||||||
| 05 | 07:52 | NW 8 | 10.00 | Mostly Cloudy | FEW020 BKN043 BKN065 | 57.9 | 53.1 | 84% | 29.97 | 1014.8 | 0.01 | 0.07 | |||||
| 05 | 06:52 | NW 7 | 4.00 | Light Rain Fog/Mist | SCT025 BKN034 OVC044 | 55.9 | 53.1 | 90% | 29.96 | 1014.4 | 0.06 | ||||||
| 05 | 05:52 | NW 9 | 10.00 | Mostly Cloudy | SCT027 BKN041 BKN075 BKN230 | 59 | 54 | 83% | 29.94 | 1013.7 | |||||||
| 05 | 04:52 | W 8 | 10.00 | Mostly Cloudy | SCT027 BKN041 BKN075 BKN230 | 57.9 | 54 | 61 | 55.9 | 87% | 29.93 | 1013.5 | 0.03 | 0.1 | |||
| 05 | 03:52 | Calm | 10.00 | Mostly Cloudy | SCT032 BKN043 BKN085 BKN230 | 59 | 55 | 87% | 29.93 | 1013.5 | |||||||
| 05 | 02:52 | W 3 | 10.00 | Mostly Cloudy | SCT030 BKN043 BKN085 BKN230 | 57.9 | 55 | 90% | 29.94 | 1013.7 | |||||||
| 05 | 01:52 | SW 3 | 10.00 | Mostly Cloudy | FEW008 SCT022 BKN039 | 57.9 | 55 | 90% | 29.95 | 1014.2 | 0.01 | 0.07 | |||||
| 05 | 00:52 | S 10 | 2.00 | Rain Fog/Mist | SCT011 BKN018 BKN039 | 55.9 | 54 | 93% | 29.97 | 1014.7 | 0.06 | ||||||
| 04 | 23:52 | W 7 | 10.00 | Mostly Cloudy | SCT022 SCT050 BKN080 BKN230 | 61 | 55 | 81% | 29.97 | 1014.7 | |||||||
| 04 | 22:52 | W 10 | 10.00 | Mostly Cloudy | SCT022 BKN060 BKN080 BKN230 | 61 | 55.9 | 66 | 61 | 84% | 29.98 | 1015.0 | |||||
| 04 | 21:52 | SW 3 | 10.00 | Mostly Cloudy | FEW028 SCT065 BKN080 BKN230 | 62.1 | 52 | 70% | 29.99 | 1015.5 | |||||||
| 04 | 20:52 | W 5 | 10.00 | Mostly Cloudy | FEW028 BKN080 BKN230 | 62.1 | 51.1 | 67% | 29.98 | 1015.3 | |||||||
| 04 | 19:52 | SW 7 | 10.00 | Mostly Cloudy | FEW028 BKN075 BKN220 | 63 | 50 | 63% | 29.97 | 1014.9 | |||||||
| 04 | 18:52 | W 8 | 10.00 | Mostly Cloudy | FEW028 SCT065 BKN230 | 64 | 50 | 60% | 29.97 | 1014.9 | |||||||
| 04 | 17:52 | W 10 | 10.00 | Mostly Cloudy | FEW027 SCT060 BKN240 | 64.9 | 51.1 | 61% | 29.98 | 1015.1 | |||||||
| 04 | 16:52 | W 13 | 10.00 | Mostly Cloudy | FEW026 SCT055 BKN250 | 66.9 | 52 | 68 | 64.9 | 59% | 29.99 | 1015.4 | |||||
| 04 | 15:52 | SW 9 | 10.00 | Mostly Cloudy | FEW026 SCT055 BKN250 | 66 | 51.1 | 59% | 29.99 | 1015.5 | |||||||
| 04 | 14:52 | W 8 | 10.00 | Mostly Cloudy | SCT025 BKN055 BKN250 | 66.9 | 50 | 55% | 30.01 | 1016.0 | |||||||
| 04 | 13:52 | W 14 G 22 | 10.00 | Mostly Cloudy | FEW027 BKN055 BKN250 | 66 | 51.1 | 59% | 30.01 | 1016.1 | |||||||
| 04 | 12:52 | W 10 | 10.00 | Mostly Cloudy | SCT027 SCT055 BKN250 | 66 | 51.1 | 59% | 30.01 | 1016.2 | |||||||
| 04 | 11:52 | W 12 | 10.00 | Mostly Cloudy | SCT030 SCT055 BKN250 | 64.9 | 52 | 63% | 30.02 | 1016.6 | |||||||
| 04 | 10:52 | W 10 | 10.00 | Mostly Cloudy | SCT030 BKN055 BKN250 | 64.9 | 50 | 66 | 60.1 | 59% | 30.02 | 1016.7 | |||||
| 04 | 08:52 | NW 8 | 10.00 | Mostly Cloudy | SCT030 BKN055 BKN250 | 63 | 50 | 63% | 30.01 | 1016.0 | |||||||
| 04 | 07:52 | NW 8 | 10.00 | Mostly Cloudy | SCT030 BKN055 BKN250 | 63 | 48.9 | 60% | 29.99 | 1015.5 | |||||||
| 04 | 06:52 | W 5 | 10.00 | Mostly Cloudy | SCT030 SCT050 BKN250 | 61 | 50 | 67% | 29.98 | 1015.3 | |||||||
| 04 | 05:52 | W 7 | 10.00 | Partly Cloudy | FEW025 SCT050 SCT250 | 60.1 | 50 | 70% | 29.98 | 1015.0 | |||||||
| 04 | 03:52 | W 10 | 10.00 | Mostly Cloudy | BKN055 | 61 | 50 | 67% | 29.97 | 1014.9 | |||||||
| 04 | 02:52 | NW 10 | 10.00 | Overcast | BKN047 OVC055 | 62.1 | 48.9 | 62% | 29.97 | 1014.8 | |||||||
| 04 | 01:52 | NW 15 | 10.00 | Mostly Cloudy | FEW027 SCT035 BKN043 | 62.1 | 51.1 | 67% | 29.98 | 1015.0 | |||||||
| 03 | 23:52 | W 13 | 10.00 | Mostly Cloudy | SCT025 SCT032 BKN060 | 62.1 | 52 | 70% | 30 | 1015.8 | |||||||
| 03 | 22:52 | W 7 | 10.00 | Overcast | FEW038 OVC060 | 63 | 52 | 66 | 63 | 68% | 29.97 | 1014.9 | |||||
| 03 | 21:52 | W 7 | 10.00 | Mostly Cloudy | FEW030 BKN055 | 63 | 51.1 | 65% | 29.98 | 1015.3 | |||||||
| 03 | 20:52 | W 6 | 10.00 | Mostly Cloudy | FEW030 BKN055 | 63 | 52 | 68% | 29.96 | 1014.3 | |||||||
| 03 | 19:52 | W 7 | 10.00 | Mostly Cloudy | FEW030 BKN055 | 64 | 52 | 65% | 29.95 | 1014.3 | |||||||
| 03 | 18:52 | W 6 | 10.00 | Mostly Cloudy | FEW030 BKN055 BKN250 | 64 | 51.1 | 63% | 29.95 | 1014.0 | |||||||
| 03 | 17:52 | W 9 | 10.00 | Mostly Cloudy | BKN048 | 66 | 50 | 56% | 29.94 | 1013.7 | |||||||
| 03 | 16:52 | W 9 | 10.00 | Mostly Cloudy | SCT033 BKN046 | 66 | 50 | 68 | 66 | 56% | 29.92 | 1013.1 | |||||
| 03 | 15:52 | W 9 | 10.00 | Partly Cloudy | SCT048 | 68 | 50 | 53% | 29.92 | 1013.2 | |||||||
| 03 | 14:52 | W 9 | 10.00 | Mostly Cloudy | BKN047 | 68 | 48.9 | 51% | 29.93 | 1013.6 | |||||||
| 03 | 13:52 | W 12 | 10.00 | Mostly Cloudy | BKN041 | 66.9 | 51.1 | 57% | 29.95 | 1014.0 | |||||||
| 03 | 12:52 | W 12 | 10.00 | Overcast | BKN040 OVC047 | 66 | 52 | 61% | 29.95 | 1014.3 | |||||||
| 03 | 11:52 | W 12 G 18 | 10.00 | Overcast | FEW020 OVC042 | 66.9 | 52 | 59% | 29.96 | 1014.3 | |||||||
| 03 | 10:52 | W 9 | 10.00 | Mostly Cloudy | FEW030 BKN042 | 66.9 | 52 | 68 | 62.1 | 59% | 29.95 | 1014.3 | |||||
| 03 | 09:52 | NW 8 | 10.00 | Mostly Cloudy | FEW010 BKN039 | 64.9 | 52 | 63% | 29.95 | 1014.3 | |||||||
| 03 | 08:52 | Calm | 10.00 | Overcast | FEW010 OVC036 | 64 | 52 | 65% | 29.95 | 1014.0 | |||||||
| 03 | 07:52 | NW 6 | 10.00 | Overcast | FEW010 OVC030 | 63 | 52 | 68% | 29.95 | 1014.0 | |||||||
| 03 | 06:52 | NW 8 | 10.00 | Overcast | OVC033 | 63 | 53.1 | 70% | 29.93 | 1013.6 | |||||||
| Date | Time (pdt) | Wind (mph) | Vis. (mi.) | Weather | Sky Cond. | Air | Dwpt | Max. | Min. | Relative Humidity | Wind Chill (°F) | Heat Index (°F) | altimeter (in) | sea level (mb) | 1 hr | 3 hr | 6 hr |
| 6 hour | |||||||||||||||||
| Temperature (ºF) | Pressure | Precipitation (in) | |||||||||||||||